Time;durP1;ratioP1;P1;durP2;ratioP2;P2;SDS_P1;SDS_P2;PMS_P1;PMS_P2;Temp;Humidity;BMP_temperature;BMP_pressure;BME280_temperature;BME280_humidity;BME280_pressure;Samples;Min_cycle;Max_cycle;Signal;HPM_P1;HPM_P2
2022/06/23 00:00:25;;;;;;;13.32;5.07;;;;;;;25.24;48.15;94668.53;4989014;28;20034;-51
2022/06/23 00:02:50;;;;;;;8.38;4.15;;;;;;;25.17;48.24;94663.72;4997715;28;20038;-53
2022/06/23 00:05:18;;;;;;;10.15;4.95;;;;;;;25.09;48.29;94673.81;4986767;28;20107;-53
2022/06/23 00:07:46;;;;;;;9.90;4.82;;;;;;;25.11;48.32;94665.84;4983389;28;20030;-52
2022/06/23 00:10:18;;;;;;;9.18;4.95;;;;;;;25.07;48.63;94665.41;4968975;28;20041;-52
2022/06/23 00:12:43;;;;;;;8.55;4.85;;;;;;;25.09;48.38;94662.88;5001729;28;20026;-54
2022/06/23 00:15:15;;;;;;;10.02;4.60;;;;;;;25.16;48.01;94667.72;4983642;28;20037;-52
2022/06/23 00:17:42;;;;;;;9.35;5.40;;;;;;;25.14;48.17;94664.78;5000455;28;20038;-51
2022/06/23 00:20:31;;;;;;;13.18;4.82;;;;;;;25.13;48.09;94666.03;5000000;28;20030;-51
2022/06/23 00:23:03;;;;;;;9.60;5.43;;;;;;;25.18;48.33;94669.91;4999924;28;20037;-51
2022/06/23 00:25:39;;;;;;;8.43;4.32;;;;;;;25.24;48.08;94668.53;4984620;28;20065;-52
2022/06/23 00:28:05;;;;;;;8.05;4.97;;;;;;;25.23;48.01;94667.06;5000639;28;20038;-51
2022/06/23 00:30:40;;;;;;;9.90;4.28;;;;;;;25.11;48.26;94654.91;4987701;28;20040;-52
2022/06/23 00:33:28;;;;;;;9.45;4.93;;;;;;;25.19;48.21;94649.53;4984099;28;20053;-51
2022/06/23 00:35:53;;;;;;;10.48;4.90;;;;;;;25.16;48.42;94640.38;5003055;28;20484;-52
2022/06/23 00:38:22;;;;;;;10.70;4.85;;;;;;;25.08;48.37;94634.09;4969015;28;20033;-53
2022/06/23 00:40:48;;;;;;;11.30;4.60;;;;;;;25.08;48.57;94623.19;5002641;28;20030;-52
2022/06/23 00:43:13;;;;;;;10.50;4.75;;;;;;;25.11;48.62;94600.25;4983972;28;20289;-52
2022/06/23 00:45:54;;;;;;;9.85;4.85;;;;;;;25.09;48.51;94591.13;4999331;28;20049;-51
2022/06/23 00:48:31;;;;;;;8.57;4.85;;;;;;;25.01;48.49;94618.34;4998073;28;20111;-53
2022/06/23 00:51:17;;;;;;;7.47;4.80;;;;;;;25.02;48.58;94636.22;4983244;28;20116;-54
2022/06/23 00:53:53;;;;;;;9.70;4.68;;;;;;;25.01;48.56;94634.75;4982251;28;20034;-53
2022/06/23 00:57:00;;;;;;;8.77;4.90;;;;;;;24.93;49.04;94635.88;4982462;28;20098;-54
2022/06/23 00:59:40;;;;;;;8.48;5.07;;;;;;;24.95;49.09;94641.56;4978512;28;20315;-53
2022/06/23 01:02:11;;;;;;;8.98;5.07;;;;;;;24.95;49.01;94647.03;5002136;28;20026;-51
2022/06/23 01:04:48;;;;;;;8.43;4.60;;;;;;;24.93;48.56;94639.38;5001116;28;20030;-53
2022/06/23 01:07:42;;;;;;;10.95;5.20;;;;;;;24.92;48.77;94626.22;4999937;28;20420;-53
2022/06/23 01:10:34;;;;;;;9.00;5.43;;;;;;;24.88;48.81;94625.81;4980643;28;20664;-53
2022/06/23 01:13:05;;;;;;;7.72;4.70;;;;;;;24.82;49.16;94623.19;5003233;28;20563;-53
2022/06/23 01:15:40;;;;;;;9.75;4.82;;;;;;;24.82;49.36;94627.94;5004466;28;20032;-53
2022/06/23 01:18:13;;;;;;;8.88;4.78;;;;;;;24.80;49.25;94632.44;4985694;28;20129;-53
2022/06/23 01:20:45;;;;;;;11.70;5.10;;;;;;;24.77;49.57;94623.31;4989134;28;20033;-53
2022/06/23 01:23:16;;;;;;;8.32;4.93;;;;;;;24.76;49.34;94612.91;5003690;28;20126;-53
2022/06/23 01:25:51;;;;;;;8.75;4.95;;;;;;;24.71;49.58;94611.03;4987213;28;20026;-55
2022/06/23 01:28:18;;;;;;;9.68;4.97;;;;;;;24.68;49.68;94612.06;4988542;28;20034;-52
2022/06/23 01:30:50;;;;;;;7.47;4.90;;;;;;;24.60;50.15;94612.00;4970679;28;20041;-51
2022/06/23 01:33:26;;;;;;;8.63;4.68;;;;;;;24.59;50.47;94615.25;4986086;28;20034;-52
2022/06/23 01:36:10;;;;;;;9.55;5.22;;;;;;;24.54;51.08;94613.34;4987960;28;20109;-52
2022/06/23 01:38:48;;;;;;;10.00;5.30;;;;;;;24.48;50.94;94604.53;4977704;28;20034;-53
2022/06/23 01:41:22;;;;;;;8.02;5.40;;;;;;;24.35;51.71;94601.84;4986581;28;20591;-54
2022/06/23 01:44:13;;;;;;;8.30;4.97;;;;;;;24.34;52.02;94597.63;4976034;28;20112;-53
2022/06/23 01:46:40;;;;;;;9.20;4.88;;;;;;;24.29;52.00;94598.44;4985912;28;20042;-53
2022/06/23 01:49:11;;;;;;;9.10;5.35;;;;;;;24.21;52.11;94597.59;5005711;28;20029;-53
2022/06/23 01:51:46;;;;;;;10.20;5.15;;;;;;;24.19;52.50;94583.75;5003630;28;20137;-54
2022/06/23 01:54:21;;;;;;;9.02;5.85;;;;;;;24.18;52.59;94582.25;4986479;28;20026;-53
2022/06/23 01:57:03;;;;;;;8.10;5.03;;;;;;;24.09;53.26;94579.94;5001669;28;20026;-53
2022/06/23 02:00:00;;;;;;;9.38;5.75;;;;;;;24.04;53.17;94578.06;4976391;28;20076;-54
2022/06/23 02:02:34;;;;;;;9.25;5.50;;;;;;;24.01;53.00;94578.38;5003938;28;20029;-53
2022/06/23 02:05:18;;;;;;;10.60;5.47;;;;;;;23.96;53.12;94571.78;4988723;28;20029;-54
2022/06/23 02:08:06;;;;;;;8.60;5.03;;;;;;;23.91;53.36;94574.59;5001903;28;20030;-51
2022/06/23 02:10:55;;;;;;;9.38;5.82;;;;;;;23.88;53.77;94581.84;5002651;28;20034;-53
2022/06/23 02:13:40;;;;;;;8.52;5.65;;;;;;;23.82;53.80;94577.00;4975939;28;20057;-51
2022/06/23 02:16:14;;;;;;;11.15;5.68;;;;;;;23.74;53.72;94582.34;4984627;28;20033;-52
2022/06/23 02:19:00;;;;;;;8.63;5.93;;;;;;;23.65;54.21;94582.00;4984491;28;20036;-52
2022/06/23 02:21:39;;;;;;;9.95;5.68;;;;;;;23.58;54.59;94577.13;4988341;28;20038;-55
2022/06/23 02:24:36;;;;;;;9.60;5.70;;;;;;;23.55;55.32;94580.91;4985188;28;20033;-51
2022/06/23 02:27:19;;;;;;;9.57;5.63;;;;;;;23.51;55.62;94580.47;4969501;28;20041;-52
2022/06/23 02:29:48;;;;;;;11.20;5.93;;;;;;;23.45;55.50;94577.09;4968626;28;20037;-52
2022/06/23 02:32:17;;;;;;;8.48;5.75;;;;;;;23.44;55.95;94570.19;5014601;28;20038;-52
2022/06/23 02:34:51;;;;;;;7.78;6.00;;;;;;;23.44;55.38;94575.63;4985740;28;20025;-54
2022/06/23 02:37:56;;;;;;;8.43;5.63;;;;;;;23.32;55.78;94582.50;4999639;28;20095;-53
2022/06/23 02:40:30;;;;;;;11.57;5.97;;;;;;;23.25;56.13;94588.56;5002313;28;20041;-52
2022/06/23 02:43:21;;;;;;;12.77;6.05;;;;;;;23.23;56.50;94588.34;5000047;28;20707;-54
2022/06/23 02:45:58;;;;;;;11.55;5.85;;;;;;;23.20;55.86;94589.38;4955747;28;20128;-53
2022/06/23 02:48:32;;;;;;;8.32;5.72;;;;;;;23.18;56.60;94591.88;5002118;28;20038;-54
2022/06/23 02:51:01;;;;;;;12.50;6.22;;;;;;;23.09;56.46;94600.44;5004180;28;20022;-54
2022/06/23 02:53:42;;;;;;;10.10;6.30;;;;;;;23.05;56.55;94594.56;5000815;28;20095;-53
2022/06/23 02:56:23;;;;;;;14.10;6.50;;;;;;;23.02;56.66;94590.13;4977648;28;20500;-53
2022/06/23 02:59:04;;;;;;;9.05;5.45;;;;;;;22.95;57.53;94601.63;5005422;28;20034;-54
2022/06/23 03:01:53;;;;;;;10.18;5.95;;;;;;;22.91;57.45;94603.88;4984374;28;20064;-53
2022/06/23 03:04:23;;;;;;;9.07;6.33;;;;;;;22.90;57.22;94605.13;4988304;28;20129;-52
2022/06/23 03:07:12;;;;;;;9.40;5.65;;;;;;;22.88;57.92;94611.59;4968562;28;20041;-52
2022/06/23 03:09:42;;;;;;;9.02;5.78;;;;;;;22.82;57.93;94608.22;4984886;28;20117;-52
2022/06/23 03:12:09;;;;;;;12.40;6.78;;;;;;;22.80;57.88;94605.28;4985778;28;20042;-52
2022/06/23 03:14:58;;;;;;;9.07;6.00;;;;;;;22.76;58.17;94600.13;5002665;28;20044;-52
2022/06/23 03:17:35;;;;;;;10.45;6.40;;;;;;;22.73;58.04;94617.47;5001765;28;20491;-52
2022/06/23 03:20:08;;;;;;;9.73;5.70;;;;;;;22.77;58.07;94612.50;4982220;28;20022;-52
2022/06/23 03:22:46;;;;;;;12.32;6.07;;;;;;;22.89;57.96;94609.09;4982546;28;20060;-54
2022/06/23 03:25:21;;;;;;;9.98;6.20;;;;;;;22.99;57.95;94602.06;4995130;28;20022;-53
2022/06/23 03:28:02;;;;;;;11.25;6.32;;;;;;;23.09;57.06;94596.97;4984540;28;20153;-53
2022/06/23 03:30:38;;;;;;;8.95;6.15;;;;;;;23.17;57.13;94595.88;4984045;28;20053;-53
2022/06/23 03:33:08;;;;;;;13.93;6.57;;;;;;;23.23;57.12;94591.06;4980152;28;20056;-53
2022/06/23 03:35:35;;;;;;;;;;;;;;;23.27;56.61;94588.75;4983038;28;20033;-52
2022/06/23 03:41:37;;;;;;;12.93;6.65;;;;;;;23.40;56.30;94580.66;4998751;28;20041;-54
2022/06/23 03:44:27;;;;;;;12.27;6.50;;;;;;;23.45;56.65;94577.09;4998280;28;20048;-52
2022/06/23 03:47:01;;;;;;;9.65;6.43;;;;;;;23.50;56.23;94582.47;4983534;28;20053;-51
2022/06/23 03:49:41;;;;;;;10.63;6.13;;;;;;;23.56;55.67;94576.94;4965371;28;20018;-54
2022/06/23 03:52:34;;;;;;;11.63;6.10;;;;;;;23.59;55.55;94573.88;4975557;28;20025;-50
2022/06/23 03:55:05;;;;;;;10.13;6.43;;;;;;;23.66;55.33;94586.94;5000764;28;20626;-52
2022/06/23 03:57:36;;;;;;;10.20;6.38;;;;;;;23.70;55.55;94602.97;4983753;28;20022;-53
2022/06/23 04:00:36;;;;;;;11.05;6.30;;;;;;;23.74;55.42;94587.06;4970770;28;20125;-52
2022/06/23 04:03:23;;;;;;;13.25;6.15;;;;;;;23.76;55.25;94588.00;4998238;28;20033;-51
2022/06/23 04:05:55;;;;;;;10.50;6.60;;;;;;;23.83;55.01;94589.38;4984925;28;20038;-51
2022/06/23 04:08:28;;;;;;;10.88;6.18;;;;;;;23.89;55.11;94594.19;4999790;28;20109;-55
2022/06/23 04:10:54;;;;;;;9.73;5.88;;;;;;;23.97;55.44;94603.22;5001261;28;20056;-52
2022/06/23 04:13:38;;;;;;;9.50;6.20;;;;;;;24.03;55.28;94601.13;5001181;28;20532;-52
2022/06/23 04:16:09;;;;;;;11.23;6.50;;;;;;;24.08;55.76;94611.22;5000509;28;20044;-53
2022/06/23 04:18:45;;;;;;;8.30;6.15;;;;;;;24.14;55.24;94603.69;5001024;28;20497;-53
2022/06/23 04:21:17;;;;;;;9.98;6.28;;;;;;;24.24;54.79;94596.53;4998331;28;20072;-57
2022/06/23 04:23:50;;;;;;;10.82;6.55;;;;;;;24.33;54.95;94604.34;4968603;28;20038;-54
2022/06/23 04:26:40;;;;;;;11.77;6.30;;;;;;;24.43;55.20;94611.56;4985620;28;20464;-54
2022/06/23 04:29:11;;;;;;;9.55;6.18;;;;;;;24.51;54.97;94611.69;4966296;28;20115;-51
2022/06/23 04:31:40;;;;;;;12.52;6.88;;;;;;;24.66;54.59;94603.69;4988649;28;20028;-54
2022/06/23 04:34:11;;;;;;;12.68;7.00;;;;;;;24.78;54.04;94594.00;4983434;28;20049;-58
2022/06/23 04:36:42;;;;;;;14.85;7.13;;;;;;;24.92;53.89;94598.91;4968453;28;20037;-53
2022/06/23 04:39:18;;;;;;;10.20;6.55;;;;;;;25.09;53.85;94597.31;4985021;28;20064;-56
2022/06/23 04:41:59;;;;;;;11.50;6.78;;;;;;;25.21;53.36;94604.00;4964785;28;20503;-56
2022/06/23 04:44:27;;;;;;;9.68;6.85;;;;;;;25.38;52.40;94596.16;4982352;28;20473;-53
2022/06/23 04:46:55;;;;;;;11.75;7.40;;;;;;;25.49;52.13;94584.97;4984225;28;20030;-52
2022/06/23 04:49:39;;;;;;;14.55;6.93;;;;;;;25.60;51.56;94590.16;5013241;28;20093;-54
2022/06/23 04:52:12;;;;;;;10.88;6.80;;;;;;;25.80;51.24;94588.19;4998724;28;20029;-55
2022/06/23 04:54:45;;;;;;;29.52;21.08;;;;;;;25.93;51.05;94590.84;4998963;28;20068;-57
2022/06/23 04:57:32;;;;;;;44.63;30.48;;;;;;;26.03;51.00;94605.50;4982703;28;20025;-54
2022/06/23 04:59:59;;;;;;;29.75;19.02;;;;;;;26.24;50.47;94591.78;4983587;28;20705;-54
2022/06/23 05:02:31;;;;;;;27.30;15.60;;;;;;;26.29;50.28;94594.38;4978696;28;20063;-55
2022/06/23 05:05:20;;;;;;;24.58;14.45;;;;;;;26.38;49.86;94574.72;4981789;28;20026;-54
2022/06/23 05:07:49;;;;;;;23.77;12.07;;;;;;;26.51;49.37;94577.38;4992591;28;20034;-54
2022/06/23 05:10:37;;;;;;;15.73;10.40;;;;;;;26.69;48.98;94577.06;4982091;28;20026;-53
2022/06/23 05:13:12;;;;;;;15.98;9.48;;;;;;;26.76;48.74;94578.41;4996189;28;20055;-54
2022/06/23 05:15:48;;;;;;;13.15;8.57;;;;;;;26.87;48.14;94582.25;5009088;28;20120;-57
2022/06/23 05:18:15;;;;;;;14.55;8.13;;;;;;;27.01;47.78;94572.69;4998190;28;20049;-54
2022/06/23 05:20:40;;;;;;;14.27;7.78;;;;;;;27.06;47.68;94593.69;4997789;28;20044;-55
2022/06/23 05:23:06;;;;;;;13.60;7.88;;;;;;;27.04;48.15;94601.75;4999385;28;20162;-55
2022/06/23 05:25:38;;;;;;;16.10;7.70;;;;;;;27.01;48.59;94600.09;5002739;28;20401;-55
2022/06/23 05:28:07;;;;;;;12.38;7.38;;;;;;;27.10;48.21;94583.13;5001526;28;20155;-53
2022/06/23 05:30:40;;;;;;;11.18;6.75;;;;;;;27.08;48.51;94563.72;5001081;28;20091;-53
2022/06/23 05:33:17;;;;;;;10.23;6.97;;;;;;;27.13;48.29;94560.09;4998364;28;20026;-56
2022/06/23 05:35:48;;;;;;;11.10;6.65;;;;;;;27.21;48.25;94582.78;4982029;28;20022;-54
2022/06/23 05:38:25;;;;;;;14.00;7.47;;;;;;;27.44;47.38;94606.25;4980733;28;20049;-53
2022/06/23 05:40:59;;;;;;;17.58;7.45;;;;;;;27.44;47.46;94594.53;4984273;28;20048;-54
2022/06/23 05:43:25;;;;;;;11.93;7.38;;;;;;;27.28;47.89;94563.59;4982199;28;20095;-54
2022/06/23 05:46:00;;;;;;;13.30;6.93;;;;;;;27.24;47.60;94578.94;4997438;28;20441;-55
2022/06/23 05:48:37;;;;;;;13.40;7.10;;;;;;;27.15;47.23;94620.59;4984857;28;20412;-55
2022/06/23 05:51:27;;;;;;;10.90;7.05;;;;;;;27.21;47.76;94665.03;4964555;28;20062;-55
2022/06/23 05:54:06;;;;;;;13.32;7.43;;;;;;;27.43;47.83;94812.50;5016892;28;20037;-54
2022/06/23 05:56:38;;;;;;;11.57;7.00;;;;;;;27.39;47.46;94954.75;5000735;28;20055;-54
2022/06/23 05:59:30;;;;;;;15.70;6.95;;;;;;;27.41;47.79;94979.63;5003964;28;20033;-54
2022/06/23 06:02:09;;;;;;;15.60;7.72;;;;;;;27.29;48.32;94842.03;4985703;28;20060;-52
2022/06/23 06:04:46;;;;;;;13.95;6.88;;;;;;;27.51;48.05;94763.91;4985420;28;20038;-53
2022/06/23 06:07:13;;;;;;;18.65;6.80;;;;;;;27.63;47.42;94787.00;4991819;28;20380;-53
2022/06/23 06:09:42;;;;;;;13.45;6.60;;;;;;;27.78;47.92;94834.47;5003031;28;20056;-53
2022/06/23 06:12:13;;;;;;;11.10;6.75;;;;;;;27.85;47.50;94834.50;5004416;28;20088;-51
2022/06/23 06:14:41;;;;;;;12.73;6.70;;;;;;;27.94;47.26;94828.50;5004166;28;20425;-51
2022/06/23 06:17:07;;;;;;;8.68;6.55;;;;;;;28.09;47.72;94847.78;4985924;28;20021;-52
2022/06/23 06:19:33;;;;;;;10.10;5.97;;;;;;;28.11;47.10;94836.97;4987445;28;20041;-52
2022/06/23 06:22:01;;;;;;;11.88;6.30;;;;;;;28.16;47.12;94811.38;5004614;28;20018;-50
2022/06/23 06:24:33;;;;;;;10.77;6.57;;;;;;;28.32;47.03;94790.91;4999963;28;20062;-51
2022/06/23 06:26:59;;;;;;;11.45;5.15;;;;;;;28.45;46.34;94755.03;5001510;28;20952;-52
2022/06/23 06:29:26;;;;;;;6.15;4.00;;;;;;;28.31;46.22;94753.72;5017518;28;20022;-51
2022/06/23 06:31:55;;;;;;;8.40;3.72;;;;;;;28.31;45.42;94742.72;5001223;28;20030;-50
2022/06/23 06:34:42;;;;;;;5.60;3.50;;;;;;;28.29;45.58;94742.53;4982372;28;20034;-51
2022/06/23 06:37:08;;;;;;;7.78;3.35;;;;;;;28.15;45.71;94744.00;5001105;28;20022;-52
2022/06/23 06:39:39;;;;;;;7.85;3.55;;;;;;;28.01;45.58;94734.44;4974141;28;20034;-51
2022/06/23 06:42:20;;;;;;;6.38;3.10;;;;;;;27.76;46.15;94730.72;5004771;28;20492;-52
2022/06/23 06:44:49;;;;;;;8.77;2.85;;;;;;;27.77;46.27;94725.94;4983157;28;20061;-51
2022/06/23 06:47:23;;;;;;;5.18;2.90;;;;;;;27.60;46.76;94733.22;5009065;28;20574;-51
2022/06/23 06:49:48;;;;;;;4.70;2.70;;;;;;;27.51;47.09;94720.03;5017049;28;20026;-50
2022/06/23 06:52:13;;;;;;;5.20;2.60;;;;;;;27.30;47.68;94705.66;5018461;28;20428;-50
2022/06/23 06:54:55;;;;;;;6.20;2.85;;;;;;;27.23;48.07;94711.81;5003428;28;20480;-52
2022/06/23 06:57:30;;;;;;;6.78;2.90;;;;;;;27.02;48.29;94708.44;4997327;28;20028;-52
2022/06/23 07:00:08;;;;;;;4.90;3.08;;;;;;;26.92;49.21;94725.91;5001756;28;20072;-51
2022/06/23 07:02:42;;;;;;;6.07;2.88;;;;;;;26.85;49.63;94721.84;5014553;28;20030;-51
2022/06/23 07:05:23;;;;;;;5.70;2.80;;;;;;;26.71;50.30;94717.00;4967421;28;20775;-51
2022/06/23 07:07:51;;;;;;;6.32;3.03;;;;;;;26.59;50.30;94709.59;4998431;28;20061;-52
2022/06/23 07:10:36;;;;;;;6.82;3.10;;;;;;;26.50;50.47;94718.31;4972192;28;20025;-51
2022/06/23 07:13:07;;;;;;;6.43;3.25;;;;;;;26.46;50.97;94717.94;4970337;28;20034;-51
2022/06/23 07:15:37;;;;;;;6.63;3.40;;;;;;;26.39;51.08;94724.78;4968309;28;20038;-51
2022/06/23 07:18:08;;;;;;;7.53;3.40;;;;;;;26.26;51.38;94726.84;5001286;28;20026;-51
2022/06/23 07:20:52;;;;;;;4.63;3.28;;;;;;;26.25;51.37;94736.34;5000310;28;20465;-51
2022/06/23 07:23:22;;;;;;;5.43;3.60;;;;;;;26.20;51.68;94737.19;5000659;28;20037;-51
2022/06/23 07:25:50;;;;;;;11.20;5.93;;;;;;;26.11;52.65;94737.66;4984922;28;20026;-51
2022/06/23 07:28:33;;;;;;;9.20;6.18;;;;;;;26.01;53.11;94755.81;4985212;28;20026;-52
2022/06/23 07:31:20;;;;;;;10.18;5.78;;;;;;;25.96;53.57;94753.97;4992197;28;20156;-51
2022/06/23 07:34:12;;;;;;;10.75;5.93;;;;;;;25.76;54.58;94745.72;4999591;28;20030;-51
2022/06/23 07:36:39;;;;;;;12.43;6.57;;;;;;;25.79;54.73;94755.59;5000586;28;20045;-51
2022/06/23 07:39:10;;;;;;;9.25;5.88;;;;;;;25.83;54.51;94767.69;5003711;28;20022;-51
2022/06/23 07:42:18;;;;;;;11.60;5.82;;;;;;;25.71;55.05;94762.22;5017904;28;20056;-50
2022/06/23 07:44:50;;;;;;;8.15;5.10;;;;;;;25.71;55.08;94786.84;4979917;28;20050;-51
2022/06/23 07:47:16;;;;;;;9.65;4.82;;;;;;;25.69;55.25;94783.91;4979839;28;20027;-50
2022/06/23 07:49:42;;;;;;;9.07;5.40;;;;;;;25.81;54.69;94772.94;4965791;28;20119;-50
2022/06/23 07:52:11;;;;;;;10.30;4.72;;;;;;;25.77;54.91;94790.19;4981942;28;20042;-51
2022/06/23 07:54:37;;;;;;;8.45;5.40;;;;;;;25.77;55.17;94806.63;4946538;28;20031;-50
2022/06/23 07:57:03;;;;;;;9.93;4.93;;;;;;;25.70;55.46;94793.59;4980793;28;20034;-52
2022/06/23 07:59:36;;;;;;;11.32;5.95;;;;;;;25.75;55.54;94792.75;4962976;28;20026;-50
2022/06/23 08:02:24;;;;;;;9.23;5.40;;;;;;;25.67;55.53;94786.47;4979704;28;20563;-50
2022/06/23 08:05:03;;;;;;;9.30;4.57;;;;;;;25.63;54.25;94775.06;4948502;28;20018;-51
2022/06/23 08:07:29;;;;;;;9.10;4.63;;;;;;;25.72;54.61;94775.38;4980936;28;20054;-52
2022/06/23 08:10:03;;;;;;;8.82;4.25;;;;;;;25.62;54.67;94784.53;4979751;28;20081;-50
2022/06/23 08:12:56;;;;;;;6.72;4.43;;;;;;;25.64;53.93;94803.91;4963384;28;20042;-51
2022/06/23 08:18:31;;;;;;;7.53;4.10;;;;;;;25.79;52.23;94754.88;4981396;28;20030;-50
2022/06/23 08:21:13;;;;;;;8.15;4.55;;;;;;;25.75;51.63;94759.91;4980360;28;20113;-52
2022/06/23 08:23:48;;;;;;;8.30;4.00;;;;;;;25.77;52.15;94779.25;4979145;28;20034;-51
2022/06/23 08:26:16;;;;;;;7.25;3.63;;;;;;;25.73;52.47;94778.88;4963790;28;20033;-50
2022/06/23 08:28:42;;;;;;;8.07;3.83;;;;;;;25.76;52.03;94755.94;4980040;28;20054;-50
2022/06/23 08:31:07;;;;;;;7.15;3.90;;;;;;;25.80;52.01;94757.78;4969007;28;20069;-52
2022/06/23 08:33:33;;;;;;;6.75;3.90;;;;;;;25.81;51.83;94758.53;4980513;28;20030;-50
2022/06/23 08:35:58;;;;;;;8.85;3.80;;;;;;;25.85;51.46;94756.94;4979893;28;20835;-51
2022/06/23 08:38:55;;;;;;;8.07;3.92;;;;;;;25.74;52.18;94763.91;4981851;28;20046;-50
2022/06/23 08:41:27;;;;;;;8.95;4.75;;;;;;;25.79;52.38;94756.31;4964264;28;20466;-51
2022/06/23 08:43:55;;;;;;;8.23;4.35;;;;;;;25.81;50.89;94748.31;4972625;28;20042;-50
2022/06/23 08:46:40;;;;;;;6.85;3.50;;;;;;;25.83;51.05;94754.00;4978851;28;20033;-51
2022/06/23 08:49:13;;;;;;;7.78;3.33;;;;;;;25.82;50.91;94749.78;4995007;28;20030;-50
2022/06/23 08:52:03;;;;;;;7.88;3.22;;;;;;;25.84;51.35;94741.78;4978956;28;20124;-51
2022/06/23 08:55:06;;;;;;;7.20;3.60;;;;;;;25.87;51.50;94729.03;4992315;28;20136;-51
2022/06/23 08:57:36;;;;;;;8.55;3.97;;;;;;;25.87;50.98;94740.72;4996335;28;20041;-50
2022/06/23 09:00:11;;;;;;;7.88;3.47;;;;;;;25.89;51.12;94746.41;4984289;28;20026;-51
2022/06/23 09:02:43;;;;;;;9.43;4.13;;;;;;;25.89;51.95;94732.72;4997680;28;20116;-51
2022/06/23 09:05:19;;;;;;;8.45;4.85;;;;;;;25.94;51.94;94739.31;5003134;28;20056;-54
2022/06/23 09:08:18;;;;;;;10.70;5.28;;;;;;;25.95;53.05;94736.06;4995129;28;20034;-53
2022/06/23 09:10:58;;;;;;;10.02;5.57;;;;;;;25.98;52.83;94734.28;4987967;28;20032;-53
2022/06/23 09:13:40;;;;;;;7.80;4.68;;;;;;;25.99;52.65;94731.00;4975804;28;20420;-53
2022/06/23 09:16:16;;;;;;;9.50;5.40;;;;;;;26.04;54.02;94732.13;4979842;28;20038;-53
2022/06/23 09:19:22;;;;;;;12.50;6.03;;;;;;;25.99;52.95;94722.78;5001256;28;20105;-53
2022/06/23 09:22:27;;;;;;;11.35;6.75;;;;;;;26.04;53.16;94716.44;4972770;28;20034;-52
2022/06/23 09:25:34;;;;;;;11.18;5.25;;;;;;;26.07;53.23;94720.84;4956664;28;20901;-52
2022/06/23 09:28:12;;;;;;;12.30;6.18;;;;;;;26.17;52.99;94719.09;4969721;28;20044;-53
2022/06/23 09:30:47;;;;;;;12.90;5.95;;;;;;;26.27;52.99;94717.38;5007316;28;20044;-52
2022/06/23 09:33:23;;;;;;;10.70;6.45;;;;;;;26.42;53.02;94706.56;4971318;28;20026;-52
2022/06/23 09:36:25;;;;;;;9.95;5.90;;;;;;;26.50;53.09;94707.34;5002369;28;20136;-52
2022/06/23 09:38:54;;;;;;;10.23;5.43;;;;;;;26.61;52.92;94701.59;5001931;28;20102;-52
2022/06/23 09:41:43;;;;;;;12.00;5.88;;;;;;;26.73;52.41;94694.56;5002771;28;20041;-52
2022/06/23 09:44:11;;;;;;;11.07;5.88;;;;;;;26.79;51.74;94695.88;5002731;28;20042;-50
2022/06/23 09:47:18;;;;;;;10.15;6.10;;;;;;;26.78;52.36;94689.63;5003983;28;20121;-51
2022/06/23 09:49:48;;;;;;;11.73;5.70;;;;;;;26.78;52.04;94695.13;4989876;28;20049;-50
2022/06/23 09:52:44;;;;;;;7.47;4.82;;;;;;;27.01;51.39;94696.03;4986080;28;20104;-51
2022/06/23 09:55:21;;;;;;;8.10;4.70;;;;;;;27.28;50.74;94689.03;4979948;28;20120;-52
2022/06/23 09:58:22;;;;;;;9.93;5.40;;;;;;;27.41;50.44;94695.09;4986572;28;20022;-52
2022/06/23 10:01:26;;;;;;;9.30;5.30;;;;;;;27.49;50.04;94689.66;4902591;29;20044;-52
2022/06/23 10:03:55;;;;;;;9.40;5.10;;;;;;;27.63;49.49;94693.72;4950460;28;20026;-52
2022/06/23 10:06:48;;;;;;;10.93;5.20;;;;;;;27.79;49.59;94685.72;5003216;28;20025;-52
2022/06/23 10:09:31;;;;;;;11.23;5.28;;;;;;;27.97;48.58;94690.13;5003302;28;20030;-51
2022/06/23 10:12:12;;;;;;;8.23;4.80;;;;;;;28.14;48.78;94687.59;5002114;28;20030;-51
2022/06/23 10:15:10;;;;;;;11.95;5.90;;;;;;;28.33;48.50;94688.00;5002681;28;20138;-54
2022/06/23 10:17:48;;;;;;;12.55;5.70;;;;;;;28.55;48.06;94687.22;4961772;28;20516;-52
2022/06/23 10:20:39;;;;;;;10.82;5.53;;;;;;;28.63;47.48;94687.97;4997275;28;20505;-53
2022/06/23 10:23:05;;;;;;;11.88;5.63;;;;;;;28.77;48.06;94681.72;5001000;28;20049;-52
2022/06/23 10:25:39;;;;;;;11.32;5.55;;;;;;;28.74;47.05;94672.59;5004862;28;20037;-52
2022/06/23 10:28:16;;;;;;;8.73;5.05;;;;;;;28.80;47.54;94664.88;5000621;28;20042;-52
2022/06/23 10:30:52;;;;;;;8.35;4.18;;;;;;;28.90;47.31;94668.50;5006475;28;20042;-52
2022/06/23 10:33:28;;;;;;;7.43;4.63;;;;;;;29.02;46.58;94657.84;5004167;28;20653;-52
2022/06/23 10:36:16;;;;;;;9.10;4.55;;;;;;;29.00;46.80;94655.66;5002020;28;20037;-50
2022/06/23 10:38:45;;;;;;;9.10;4.70;;;;;;;29.20;46.27;94640.91;4995506;28;20103;-51
2022/06/23 10:41:50;;;;;;;7.88;4.50;;;;;;;29.17;46.89;94650.28;4998870;28;20084;-52
2022/06/23 10:44:40;;;;;;;8.55;4.07;;;;;;;29.33;46.33;94646.22;4996095;28;20120;-51
2022/06/23 10:47:12;;;;;;;7.20;3.83;;;;;;;29.41;45.82;94639.34;5000961;28;20118;-51
2022/06/23 10:49:46;;;;;;;8.15;5.13;;;;;;;29.57;45.99;94640.03;5000560;28;20018;-51
2022/06/23 10:52:29;;;;;;;8.35;4.55;;;;;;;29.50;46.23;94643.53;5001109;28;20022;-52
2022/06/23 10:55:22;;;;;;;6.60;4.75;;;;;;;29.59;46.05;94637.44;5000773;28;20120;-51
2022/06/23 10:58:12;;;;;;;9.13;4.53;;;;;;;29.77;45.11;94636.94;4989557;28;20132;-51
2022/06/23 11:00:56;;;;;;;8.98;4.50;;;;;;;29.71;45.36;94645.41;5003348;28;20046;-51
2022/06/23 11:03:33;;;;;;;9.25;4.65;;;;;;;29.72;45.09;94635.88;4999858;28;20026;-50
2022/06/23 11:06:16;;;;;;;7.85;4.70;;;;;;;29.74;45.11;94638.78;4999579;28;20112;-50
2022/06/23 11:08:47;;;;;;;6.80;4.10;;;;;;;29.78;45.33;94644.66;5002112;28;20029;-51
2022/06/23 11:11:38;;;;;;;6.75;3.95;;;;;;;29.73;45.40;94634.59;5003055;28;20120;-51
2022/06/23 11:14:12;;;;;;;7.88;4.75;;;;;;;29.71;45.15;94631.66;5002774;28;20029;-51
2022/06/23 11:16:50;;;;;;;7.13;4.20;;;;;;;29.60;45.44;94627.91;4970068;28;20022;-52
2022/06/23 11:19:24;;;;;;;7.38;3.95;;;;;;;29.59;45.32;94637.44;5004929;28;20493;-51
2022/06/23 11:22:13;;;;;;;6.22;3.95;;;;;;;29.59;45.63;94631.94;5000097;28;20029;-51
2022/06/23 11:25:09;;;;;;;10.32;4.10;;;;;;;29.54;46.00;94636.38;4999620;28;20026;-51
2022/06/23 11:28:04;;;;;;;9.10;4.30;;;;;;;29.50;45.94;94635.28;4999926;28;20060;-52
2022/06/23 11:30:51;;;;;;;7.40;3.95;;;;;;;29.38;46.17;94634.25;4999820;28;20033;-50
2022/06/23 11:33:47;;;;;;;9.02;4.05;;;;;;;29.42;46.08;94645.63;4999667;28;20212;-51
2022/06/23 11:36:31;;;;;;;10.32;4.03;;;;;;;29.32;46.05;94653.00;4997890;28;20115;-51
2022/06/23 11:39:02;;;;;;;7.72;4.45;;;;;;;29.31;46.43;94662.53;4999590;28;20029;-52
2022/06/23 11:41:41;;;;;;;5.88;4.00;;;;;;;29.24;46.80;94652.28;4998791;28;20054;-52
2022/06/23 11:44:21;;;;;;;8.23;3.90;;;;;;;29.22;46.81;94649.31;4982845;28;20042;-51
2022/06/23 11:47:05;;;;;;;9.88;4.60;;;;;;;29.16;46.53;94668.06;4996137;28;20050;-52
2022/06/23 11:49:37;;;;;;;6.85;3.80;;;;;;;29.11;46.96;94665.53;4999009;28;20030;-51
2022/06/23 11:52:30;;;;;;;10.02;4.18;;;;;;;29.05;47.20;94657.47;4983227;28;20034;-52
2022/06/23 11:55:16;;;;;;;9.27;4.10;;;;;;;29.05;47.47;94662.97;4999812;28;20022;-52
2022/06/23 11:58:11;;;;;;;6.78;4.00;;;;;;;29.01;47.51;94679.09;4981156;28;20076;-51
2022/06/23 12:00:46;;;;;;;8.57;3.20;;;;;;;28.99;46.91;94665.19;5000510;28;20045;-51
2022/06/23 12:03:12;;;;;;;7.95;3.65;;;;;;;28.92;47.54;94660.44;4997731;28;20037;-50
2022/06/23 12:05:42;;;;;;;6.70;3.60;;;;;;;28.93;47.38;94650.91;4999423;28;20033;-51
2022/06/23 12:08:07;;;;;;;9.00;3.97;;;;;;;28.92;46.91;94654.94;5012874;28;20030;-51
2022/06/23 12:10:34;;;;;;;7.72;3.90;;;;;;;28.91;47.56;94641.75;5000826;28;20040;-51
2022/06/23 12:13:02;;;;;;;6.03;3.60;;;;;;;28.89;46.97;94639.56;4967104;28;20026;-52
2022/06/23 12:15:31;;;;;;;5.85;3.78;;;;;;;28.81;47.17;94638.84;5000987;28;20516;-51
2022/06/23 12:18:09;;;;;;;7.15;3.40;;;;;;;28.82;47.54;94617.59;4970944;28;20022;-52
2022/06/23 12:21:30;;;;;;;6.57;3.83;;;;;;;28.76;47.15;94625.31;5007438;28;20046;-50
2022/06/23 12:24:10;;;;;;;6.55;3.70;;;;;;;28.81;47.20;94627.84;4938523;28;20562;-51